createdAt,value
2022-11-20T00:04:52.768Z,18.83
2022-11-20T00:09:54.382Z,18.40
2022-11-20T00:14:56.020Z,19.52
2022-11-20T00:19:57.705Z,20.55
2022-11-20T00:24:59.347Z,20.00
2022-11-20T00:30:01.054Z,20.60
2022-11-20T00:35:02.686Z,20.40
2022-11-20T00:40:04.778Z,18.52
2022-11-20T00:45:06.771Z,17.52
2022-11-20T00:50:08.848Z,18.25
2022-11-20T00:55:10.455Z,16.15
2022-11-20T01:00:12.282Z,17.63
2022-11-20T01:05:14.046Z,17.00
2022-11-20T01:10:15.747Z,18.00
2022-11-20T01:15:17.440Z,17.80
2022-11-20T01:20:19.052Z,18.25
2022-11-20T01:25:20.675Z,18.58
2022-11-20T01:30:22.341Z,17.52
2022-11-20T01:35:24.004Z,17.02
2022-11-20T01:40:25.670Z,18.00
2022-11-20T01:46:00.865Z,18.52
2022-11-20T01:51:05.042Z,18.02
2022-11-20T01:56:11.163Z,18.63
2022-11-20T02:01:14.110Z,16.80
2022-11-20T02:06:28.929Z,17.20
2022-11-20T02:11:31.732Z,15.70
2022-11-20T02:16:39.550Z,16.25
2022-11-20T02:21:54.517Z,16.83
2022-11-20T02:27:01.476Z,16.48
2022-11-20T02:32:04.132Z,15.85
2022-11-20T02:37:05.827Z,14.77
2022-11-20T02:42:07.479Z,14.13
2022-11-20T02:47:09.451Z,13.93
2022-11-20T02:52:11.135Z,13.50
2022-11-20T02:57:12.788Z,13.63
2022-11-20T03:02:14.462Z,12.75
2022-11-20T03:07:16.820Z,11.95
2022-11-20T03:12:18.490Z,13.25
2022-11-20T03:17:20.373Z,11.68
2022-11-20T03:22:22.007Z,13.50
2022-11-20T03:27:23.619Z,12.90
2022-11-20T03:32:25.226Z,12.45
2022-11-20T03:37:26.839Z,13.15
2022-11-20T03:42:46.472Z,12.57
2022-11-20T03:47:48.154Z,12.48
2022-11-20T03:52:49.779Z,13.27
2022-11-20T03:57:51.409Z,12.90
2022-11-20T04:02:52.991Z,12.73
2022-11-20T04:07:54.828Z,13.25
2022-11-20T04:12:56.451Z,12.43
2022-11-20T04:17:58.051Z,10.82
2022-11-20T04:22:59.690Z,12.70
2022-11-20T04:28:01.377Z,11.43
2022-11-20T04:33:03.006Z,10.65
2022-11-20T04:38:05.247Z,10.32
2022-11-20T04:43:06.903Z,10.63
2022-11-20T04:48:08.565Z,10.88
2022-11-20T04:53:10.216Z,11.95
2022-11-20T04:58:12.218Z,11.45
2022-11-20T05:03:13.914Z,10.45
2022-11-20T05:08:15.582Z,11.15
2022-11-20T05:13:17.187Z,10.32
2022-11-20T05:18:18.920Z,10.20
2022-11-20T05:23:20.544Z,10.10
2022-11-20T05:28:23.088Z,11.25
2022-11-20T05:33:24.650Z,10.07
2022-11-20T05:38:26.313Z,10.38
2022-11-20T05:43:28.012Z,10.02
2022-11-20T05:48:29.823Z,10.05
2022-11-20T05:53:32.801Z,10.55
2022-11-20T05:58:35.101Z,9.32
2022-11-20T06:03:37.204Z,9.88
2022-11-20T06:08:38.892Z,9.70
2022-11-20T06:13:42.615Z,8.73
2022-11-20T06:18:44.756Z,8.20
2022-11-20T06:23:47.644Z,9.27
2022-11-20T06:28:50.400Z,7.22
2022-11-20T06:33:52.302Z,8.30
2022-11-20T06:38:53.918Z,8.57
2022-11-20T06:43:56.840Z,8.60
2022-11-20T06:48:59.308Z,8.75
2022-11-20T06:54:02.006Z,7.97
2022-11-20T06:59:08.230Z,9.20
2022-11-20T07:04:09.864Z,9.07
2022-11-20T07:09:12.983Z,8.02
2022-11-20T07:14:14.788Z,9.68
2022-11-20T07:19:16.664Z,9.57
2022-11-20T07:24:18.429Z,8.43
2022-11-20T07:29:20.772Z,9.75
2022-11-20T07:34:22.617Z,8.95
2022-11-20T07:39:24.365Z,10.50
2022-11-20T07:44:26.026Z,9.25
2022-11-20T07:49:27.959Z,9.70
2022-11-20T07:54:29.720Z,10.05
2022-11-20T07:59:31.369Z,10.85
2022-11-20T08:04:34.302Z,10.85
2022-11-20T08:09:35.956Z,9.57
2022-11-20T08:14:37.646Z,11.48
2022-11-20T08:19:39.288Z,11.48
2022-11-20T08:24:40.966Z,11.25
2022-11-20T08:29:42.724Z,13.40
2022-11-20T08:34:44.390Z,12.02
2022-11-20T08:39:46.075Z,11.48
2022-11-20T08:44:48.055Z,12.20
2022-11-20T08:49:49.719Z,14.20
2022-11-20T08:54:51.427Z,13.95
2022-11-20T09:00:09.298Z,13.25
2022-11-20T09:05:11.259Z,13.02
2022-11-20T09:10:28.411Z,14.20
2022-11-20T09:20:32.200Z,13.57
2022-11-20T09:25:34.001Z,14.13
2022-11-20T09:30:35.793Z,13.18
2022-11-20T09:35:37.457Z,14.57
2022-11-20T09:40:52.773Z,15.45
2022-11-20T09:46:30.071Z,15.82
2022-11-20T09:51:53.691Z,19.65
2022-11-20T09:57:00.690Z,20.02
2022-11-20T10:02:07.623Z,22.40
2022-11-20T10:07:36.024Z,17.98
2022-11-20T10:13:28.841Z,19.55
2022-11-20T10:18:49.121Z,17.63
2022-11-20T10:24:15.515Z,18.80
2022-11-20T10:29:19.487Z,17.93
2022-11-20T10:34:45.786Z,15.93
2022-11-20T10:40:30.027Z,18.23
2022-11-20T10:45:45.360Z,14.75
2022-11-20T10:51:28.732Z,17.00
2022-11-20T10:56:53.357Z,19.02
2022-11-20T11:01:55.070Z,15.25
2022-11-20T11:07:05.795Z,12.30
2022-11-20T11:12:09.943Z,8.75
2022-11-20T11:17:33.522Z,8.60
2022-11-20T11:22:46.425Z,9.32
2022-11-20T11:27:49.469Z,7.25
2022-11-20T11:32:51.657Z,9.85
2022-11-20T11:38:24.900Z,9.55
2022-11-20T11:43:49.130Z,10.85
2022-11-20T11:49:17.231Z,11.88
2022-11-20T11:54:25.041Z,9.90
2022-11-20T12:00:10.973Z,9.30
2022-11-20T12:05:37.304Z,9.48
2022-11-20T12:10:46.259Z,9.15
2022-11-20T12:15:49.158Z,12.00
2022-11-20T12:21:06.509Z,9.50
2022-11-20T12:26:57.197Z,9.80
2022-11-20T12:32:16.752Z,8.90
2022-11-20T12:37:36.760Z,9.88
2022-11-20T12:43:02.871Z,9.10
2022-11-20T12:48:19.905Z,9.95
2022-11-20T12:53:58.950Z,9.38
2022-11-20T12:59:26.667Z,10.25
2022-11-20T13:05:10.388Z,11.27
2022-11-20T13:10:31.680Z,9.63
2022-11-20T13:15:56.963Z,9.88
2022-11-20T13:20:59.058Z,9.93
2022-11-20T13:26:06.471Z,8.73
2022-11-20T13:36:31.259Z,9.50
2022-11-20T13:41:39.068Z,9.60
2022-11-20T13:46:47.413Z,8.63
2022-11-20T13:51:52.269Z,9.88
2022-11-20T13:57:08.401Z,9.27
2022-11-20T14:02:17.136Z,8.60
2022-11-20T14:07:24.818Z,9.73
2022-11-20T14:12:32.049Z,15.77
2022-11-20T14:17:36.024Z,15.63
2022-11-20T14:22:37.639Z,12.15
2022-11-20T14:27:42.329Z,10.07
2022-11-20T14:32:46.086Z,13.57
2022-11-20T14:37:48.451Z,11.18
2022-11-20T14:42:50.489Z,10.88
2022-11-20T14:47:57.905Z,9.93
2022-11-20T14:53:01.280Z,11.27
2022-11-20T14:58:05.967Z,11.25
2022-11-20T15:03:17.191Z,10.57
2022-11-20T15:08:19.274Z,10.73
2022-11-20T15:13:35.505Z,11.80
2022-11-20T15:18:45.612Z,12.32
2022-11-20T15:23:47.941Z,11.10
2022-11-20T15:28:51.727Z,12.43
2022-11-20T15:33:53.429Z,13.65
2022-11-20T15:38:55.134Z,12.40
2022-11-20T15:43:56.835Z,12.57
2022-11-20T15:49:00.772Z,13.38
2022-11-20T15:54:14.018Z,13.77
2022-11-20T15:59:16.542Z,14.20
2022-11-20T16:04:19.329Z,15.13
2022-11-20T16:09:21.331Z,16.35
2022-11-20T16:14:41.530Z,16.50
2022-11-20T16:19:43.150Z,16.02
2022-11-20T16:24:44.781Z,15.32
2022-11-20T16:29:46.811Z,15.73
2022-11-20T16:34:48.766Z,16.25
2022-11-20T16:39:50.998Z,15.63
2022-11-20T16:44:52.686Z,19.23
2022-11-20T16:49:54.299Z,21.73
2022-11-20T16:54:56.235Z,17.90
2022-11-20T17:00:02.055Z,16.63
2022-11-20T17:05:04.697Z,16.07
2022-11-20T17:10:06.797Z,18.05
2022-11-20T17:15:08.896Z,23.90
2022-11-20T17:20:12.284Z,22.58
2022-11-20T17:25:14.697Z,21.67
2022-11-20T17:30:16.418Z,21.58
2022-11-20T17:35:18.037Z,18.20
2022-11-20T17:40:23.226Z,18.92
2022-11-20T17:45:28.706Z,15.98
2022-11-20T17:50:30.400Z,15.00
2022-11-20T17:55:55.613Z,14.60
2022-11-20T18:01:05.243Z,14.52
2022-11-20T18:06:22.305Z,13.68
2022-11-20T18:11:30.176Z,11.88
2022-11-20T18:16:36.315Z,13.27
2022-11-20T18:21:38.029Z,12.55
2022-11-20T18:26:44.052Z,14.35
2022-11-20T18:31:46.300Z,14.40
2022-11-20T18:36:48.087Z,14.93
2022-11-20T18:42:08.751Z,15.85
2022-11-20T18:47:14.952Z,15.32
2022-11-20T18:52:17.662Z,15.77
2022-11-20T18:57:21.823Z,15.32
2022-11-20T19:02:23.655Z,15.70
2022-11-20T19:07:25.762Z,17.55
2022-11-20T19:12:27.516Z,18.60
2022-11-20T19:17:29.444Z,18.63
2022-11-20T19:22:31.401Z,19.83
2022-11-20T19:27:33.815Z,19.45
2022-11-20T19:32:35.857Z,20.65
2022-11-20T19:37:41.077Z,19.40
2022-11-20T19:42:43.084Z,20.50
2022-11-20T19:48:06.553Z,19.33
2022-11-20T19:53:08.016Z,18.85
2022-11-20T19:58:09.651Z,18.73
2022-11-20T20:03:11.335Z,18.90
2022-11-20T20:08:16.961Z,19.60
2022-11-20T20:13:18.985Z,18.92
2022-11-20T20:18:20.966Z,20.80
2022-11-20T20:23:22.795Z,20.60
2022-11-20T20:28:24.689Z,19.55
2022-11-20T20:33:26.343Z,20.27
2022-11-20T20:38:28.081Z,23.00
2022-11-20T20:43:29.968Z,23.80
2022-11-20T20:48:31.690Z,22.70
2022-11-20T20:53:34.116Z,22.45
2022-11-20T20:58:36.403Z,22.73
2022-11-20T21:03:38.769Z,22.45
2022-11-20T21:08:43.513Z,20.67
2022-11-20T21:13:47.529Z,21.85
2022-11-20T21:18:49.405Z,21.55
2022-11-20T21:23:52.092Z,22.58
2022-11-20T21:28:53.892Z,21.42
2022-11-20T21:33:56.738Z,21.73
2022-11-20T21:38:59.497Z,21.25
2022-11-20T21:49:25.916Z,20.85
2022-11-20T21:54:27.802Z,19.85
2022-11-20T21:59:29.408Z,22.10
2022-11-20T22:04:31.025Z,19.67
2022-11-20T22:09:32.659Z,20.55
2022-11-20T22:14:34.276Z,18.95
2022-11-20T22:19:35.850Z,19.52
2022-11-20T22:24:37.478Z,19.30
2022-11-20T22:29:39.086Z,17.67
2022-11-20T22:34:40.674Z,17.73
2022-11-20T22:39:42.297Z,17.83
2022-11-20T22:44:43.887Z,16.15
2022-11-20T22:49:45.496Z,17.88
2022-11-20T22:54:47.119Z,18.25
2022-11-20T22:59:48.790Z,17.13
2022-11-20T23:04:50.474Z,18.92
2022-11-20T23:09:52.095Z,18.95
2022-11-20T23:14:53.713Z,19.88
2022-11-20T23:19:55.343Z,22.98
2022-11-20T23:24:57.038Z,24.33
2022-11-20T23:29:59.240Z,24.38
2022-11-20T23:35:00.893Z,25.10
2022-11-20T23:40:03.283Z,25.88
2022-11-20T23:45:05.225Z,26.30
2022-11-20T23:50:07.051Z,26.80
2022-11-20T23:55:08.818Z,27.55
